^^
Meteo Knjazevac Station Historical Data
Daily Summary for March 24, 2021 Units:  English    Metric   Both
Daily Weekly Monthly Yearly Custom
  High: Low: Average:
Temperature: 79.5 °F 59.2 °F 69.1 °F
Dew Point: 64.4 °F 53.4 °F 58.6 °F
Humidity: 86% 55% 70%
Wind Speed: 10mph 0mph 2.5mph
Wind Gust: 20mph - -
Wind- - SW
Pressure: 30.30 in 30.09 in -
Precipitation: 0.00 in    
Historical Graphs
 
 
Tabular Data for March 24, 2021
Time Temperature Dew Point Pressure Wind Wind Speed Wind Gust Humidity Rainfall Rate (Hourly) solar Conditions
00:00 71.8 °F 55.7 °F 30.09 in West 6 mph 8 mph 57% 0.00 in 0 W/m2
00:10 71.4 °F 56.8 °F 30.10 in West 9 mph 20 mph 60% 0.00 in 0 W/m2
00:20 70.5 °F 57.3 °F 30.11 in WSW 9 mph 17 mph 63% 0.00 in 0 W/m2
00:30 69.6 °F 57.3 °F 30.11 in West 8 mph 17 mph 65% 0.00 in 0 W/m2
00:40 69.1 °F 56.8 °F 30.12 in West 6 mph 11 mph 65% 0.00 in 0 W/m2
00:50 68.7 °F 57.3 °F 30.13 in WNW 6 mph 12 mph 67% 0.00 in 0 W/m2
01:00 68.4 °F 57 °F 30.14 in WNW 2 mph 8 mph 67% 0.00 in 0 W/m2
01:10 68 °F 56.6 °F 30.15 in SW 6 mph 9 mph 67% 0.00 in 0 W/m2
01:20 67.5 °F 56.1 °F 30.14 in WSW 8 mph 15 mph 67% 0.00 in 0 W/m2
01:30 67.1 °F 55.8 °F 30.15 in WSW 10 mph 15 mph 67% 0.00 in 0 W/m2
01:40 66.6 °F 55.7 °F 30.15 in WSW 5 mph 14 mph 68% 0.00 in 0 W/m2
01:50 66 °F 56 °F 30.16 in WSW 7 mph 13 mph 70% 0.00 in 0 W/m2
02:00 65.3 °F 56 °F 30.16 in SW 8 mph 14 mph 72% 0.00 in 0 W/m2
02:10 64.6 °F 55.7 °F 30.16 in SW 10 mph 15 mph 73% 0.00 in 0 W/m2
02:20 64 °F 55.6 °F 30.17 in SW 9 mph 13 mph 74% 0.00 in 0 W/m2
02:30 63.7 °F 55.2 °F 30.17 in SW 8 mph 12 mph 74% 0.00 in 0 W/m2
02:40 63.1 °F 55.1 °F 30.18 in SW 8 mph 12 mph 75% 0.00 in 0 W/m2
02:50 62.6 °F 54.6 °F 30.18 in SW 6 mph 13 mph 75% 0.00 in 0 W/m2
03:00 62.4 °F 54.4 °F 30.18 in WSW 7 mph 11 mph 75% 0.00 in 0 W/m2
03:10 62.1 °F 54 °F 30.19 in WSW 5 mph 9 mph 75% 0.00 in 0 W/m2
03:20 61.5 °F 54.2 °F 30.19 in SW 2 mph 8 mph 77% 0.00 in 0 W/m2
03:30 61.2 °F 54.2 °F 30.19 in SSW 3 mph 5 mph 78% 0.00 in 0 W/m2
03:40 60.8 °F 53.9 °F 30.20 in SSW 3 mph 5 mph 78% 0.00 in 0 W/m2
03:50 60.6 °F 53.7 °F 30.19 in SSW 2 mph 6 mph 78% 0.00 in 0 W/m2
04:00 60.4 °F 53.5 °F 30.20 in WSW 1 mph 4 mph 78% 0.00 in 0 W/m2
04:10 60.3 °F 53.7 °F 30.20 in ENE 1 mph 2 mph 79% 0.00 in 0 W/m2
04:20 60.3 °F 53.7 °F 30.20 in SW 2 mph 3 mph 79% 0.00 in 0 W/m2
04:30 60.1 °F 53.5 °F 30.20 in West 1 mph 3 mph 79% 0.00 in 0 W/m2
04:40 60.1 °F 53.5 °F 30.20 in Calm   2 mph 79% 0.00 in 0 W/m2
04:50 59.9 °F 53.7 °F 30.21 in SW 1 mph 4 mph 80% 0.00 in 0 W/m2
05:00 59.7 °F 53.5 °F 30.22 in Calm   1 mph 80% 0.00 in 3 W/m2
05:10 59.5 °F 53.4 °F 30.22 in NE 1 mph 2 mph 80% 0.00 in 6 W/m2
05:20 59.4 °F 53.5 °F 30.22 in Calm   2 mph 81% 0.00 in 10 W/m2
05:30 59.4 °F 53.5 °F 30.22 in SSW 1 mph 4 mph 81% 0.00 in 17 W/m2
05:40 59.2 °F 54 °F 30.22 in WSW 2 mph 5 mph 83% 0.00 in 19 W/m2
05:50 59.2 °F 54 °F 30.22 in SW 1 mph 4 mph 83% 0.00 in 23 W/m2
06:00 59.2 °F 54 °F 30.22 in Calm   2 mph 83% 0.00 in 27 W/m2
06:10 59.2 °F 54 °F 30.23 in Calm   2 mph 83% 0.00 in 41 W/m2
06:20 59.4 °F 54.2 °F 30.23 in ESE 2 mph 5 mph 83% 0.00 in 51 W/m2
06:30 59.5 °F 54.4 °F 30.23 in South 1 mph 4 mph 83% 0.00 in 54 W/m2
06:40 59.7 °F 54.9 °F 30.25 in West 1 mph 3 mph 84% 0.00 in 83 W/m2
06:50 59.9 °F 55 °F 30.25 in Calm   2 mph 84% 0.00 in 122 W/m2
07:00 60.1 °F 54.9 °F 30.25 in Calm   2 mph 83% 0.00 in 118 W/m2
07:10 60.3 °F 55.1 °F 30.25 in West 1 mph 3 mph 83% 0.00 in 128 W/m2
07:20 60.6 °F 55.4 °F 30.25 in South 2 mph 4 mph 83% 0.00 in 135 W/m2
07:30 60.8 °F 55.6 °F 30.25 in SSW 2 mph 3 mph 83% 0.00 in 174 W/m2
07:40 61 °F 55.8 °F 30.25 in SSW 2 mph 3 mph 83% 0.00 in 208 W/m2
07:50 61.5 °F 55.6 °F 30.25 in SSE 3 mph 5 mph 81% 0.00 in 228 W/m2
08:00 61.9 °F 56 °F 30.25 in South 2 mph 5 mph 81% 0.00 in 234 W/m2
08:10 62.2 °F 56 °F 30.26 in South 1 mph 5 mph 80% 0.00 in 266 W/m2
08:20 62.6 °F 56.3 °F 30.30 in South 2 mph 5 mph 80% 0.00 in 412 W/m2
08:30 63 °F 56.4 °F 30.30 in South 3 mph 8 mph 79% 0.00 in 548 W/m2
08:40 63.5 °F 56.5 °F 30.30 in SE 7 mph 11 mph 78% 0.00 in 554 W/m2
08:50 63.9 °F 55.8 °F 30.30 in SSW 3 mph 7 mph 75% 0.00 in 564 W/m2
09:00 65.1 °F 57 °F 30.30 in SSW 2 mph 4 mph 75% 0.00 in 570 W/m2
09:10 66 °F 57.1 °F 30.30 in South 1 mph 5 mph 73% 0.00 in 628 W/m2
09:20 66.7 °F 56.6 °F 30.30 in SW 3 mph 5 mph 70% 0.00 in 607 W/m2
09:30 67.3 °F 56.8 °F 30.29 in Calm   5 mph 69% 0.00 in 639 W/m2
09:40 68 °F 57.1 °F 30.29 in SSE 3 mph 8 mph 68% 0.00 in 739 W/m2
09:50 68.5 °F 57.5 °F 30.28 in SSE 1 mph 7 mph 68% 0.00 in 784 W/m2
10:00 68.9 °F 57.5 °F 30.28 in WSW 1 mph 7 mph 67% 0.00 in 802 W/m2
10:10 69.4 °F 58 °F 30.28 in West 3 mph 6 mph 67% 0.00 in 825 W/m2
10:20 70.3 °F 58 °F 30.28 in WSW 5 mph 8 mph 65% 0.00 in 844 W/m2
10:30 70.9 °F 58.5 °F 30.28 in WSW 2 mph 7 mph 65% 0.00 in 739 W/m2
10:40 71.1 °F 57.8 °F 30.27 in West 2 mph 7 mph 63% 0.00 in 368 W/m2
10:50 71.6 °F 58.8 °F 30.27 in WSW 3 mph 6 mph 64% 0.00 in 392 W/m2
11:00 71.6 °F 58.3 °F 30.27 in WNW 1 mph 5 mph 63% 0.00 in 323 W/m2
11:10 71.4 °F 58.2 °F 30.27 in WSW 5 mph 8 mph 63% 0.00 in 491 W/m2
11:20 71.8 °F 58.5 °F 30.27 in SW 2 mph 10 mph 63% 0.00 in 492 W/m2
11:30 71.8 °F 58.5 °F 30.27 in SW 3 mph 8 mph 63% 0.00 in 534 W/m2
11:40 72 °F 58.7 °F 30.27 in WSW 1 mph 8 mph 63% 0.00 in 852 W/m2
11:50 72.5 °F 59.2 °F 30.26 in West 2 mph 7 mph 63% 0.00 in 684 W/m2
12:00 73.1 °F 59.3 °F 30.25 in South 3 mph 7 mph 62% 0.00 in 956 W/m2
12:10 73.6 °F 58.3 °F 30.25 in SW 3 mph 7 mph 59% 0.00 in 402 W/m2
12:20 73.8 °F 59 °F 30.25 in WSW 3 mph 5 mph 60% 0.00 in 961 W/m2
12:30 74.5 °F 58.7 °F 30.25 in WSW 1 mph 6 mph 58% 0.00 in 636 W/m2
12:40 74.1 °F 58.9 °F 30.24 in WSW 1 mph 5 mph 59% 0.00 in 422 W/m2
12:50 74.1 °F 58.4 °F 30.24 in Calm   6 mph 58% 0.00 in 664 W/m2
13:00 74.8 °F 59.5 °F 30.24 in WSW 2 mph 5 mph 59% 0.00 in 569 W/m2
13:10 75.4 °F 60.1 °F 30.24 in SW 3 mph 7 mph 59% 0.00 in 799 W/m2
13:20 75.4 °F 59.6 °F 30.24 in WNW 3 mph 7 mph 58% 0.00 in 406 W/m2
13:30 75.2 °F 59.9 °F 30.24 in Calm   7 mph 59% 0.00 in 929 W/m2
13:40 76.1 °F 60.3 °F 30.23 in WSW 2 mph 6 mph 58% 0.00 in 796 W/m2
13:50 76.3 °F 59.9 °F 30.23 in West 1 mph 3 mph 57% 0.00 in 785 W/m2
14:00 77 °F 61.1 °F 30.22 in WSW 2 mph 6 mph 58% 0.00 in 846 W/m2
14:10 77.9 °F 61.4 °F 30.22 in NE 5 mph 8 mph 57% 0.00 in 839 W/m2
14:20 78.3 °F 61.8 °F 30.22 in NW 1 mph 3 mph 57% 0.00 in 652 W/m2
14:30 78.3 °F 60.8 °F 30.22 in NNW 2 mph 7 mph 55% 0.00 in 564 W/m2
14:40 78.3 °F 62.3 °F 30.21 in North 1 mph 6 mph 58% 0.00 in 825 W/m2
14:50 78.8 °F 61.3 °F 30.21 in North 2 mph 6 mph 55% 0.00 in 790 W/m2
15:00 79 °F 63 °F 30.20 in Calm   5 mph 58% 0.00 in 537 W/m2
15:10 79.2 °F 62.6 °F 30.20 in North 1 mph 6 mph 57% 0.00 in 500 W/m2
15:20 79 °F 62.4 °F 30.20 in NNW 1 mph 5 mph 57% 0.00 in 445 W/m2
15:30 79 °F 63 °F 30.19 in NNW 2 mph 6 mph 58% 0.00 in 442 W/m2
15:40 79 °F 62.9 °F 30.19 in North 3 mph 7 mph 58% 0.00 in 297 W/m2
15:50 78.7 °F 63.6 °F 30.19 in North 2 mph 5 mph 60% 0.00 in 452 W/m2
16:00 78.6 °F 63.6 °F 30.19 in North 3 mph 7 mph 60% 0.00 in 443 W/m2
16:10 78.8 °F 63.3 °F 30.19 in North 2 mph 7 mph 59% 0.00 in 569 W/m2
16:20 79.2 °F 64.1 °F 30.19 in North 2 mph 7 mph 60% 0.00 in 579 W/m2
16:30 79.5 °F 64.4 °F 30.19 in North 3 mph 8 mph 60% 0.00 in 400 W/m2
16:40 79.3 °F 63.8 °F 30.18 in North 5 mph 9 mph 59% 0.00 in 256 W/m2
16:50 79 °F 63.9 °F 30.18 in North 2 mph 7 mph 60% 0.00 in 362 W/m2
17:00 79.2 °F 64.1 °F 30.18 in North 5 mph 8 mph 60% 0.00 in 437 W/m2
17:10 79.3 °F 64.2 °F 30.18 in North 2 mph 8 mph 60% 0.00 in 429 W/m2
17:20 79.3 °F 63.8 °F 30.18 in North 3 mph 7 mph 59% 0.00 in 398 W/m2
17:30 79.3 °F 64.2 °F 30.18 in North 5 mph 8 mph 60% 0.00 in 364 W/m2
17:40 79.2 °F 63.6 °F 30.18 in North 2 mph 7 mph 59% 0.00 in 204 W/m2
17:50 78.8 °F 63.7 °F 30.18 in NNW 1 mph 6 mph 60% 0.00 in 155 W/m2
18:00 78.4 °F 63.4 °F 30.18 in NNW 3 mph 8 mph 60% 0.00 in 240 W/m2
18:10 78.1 °F 63.1 °F 30.18 in NNW 3 mph 7 mph 60% 0.00 in 224 W/m2
18:20 77.7 °F 62.7 °F 30.17 in NNW 5 mph 7 mph 60% 0.00 in 146 W/m2
18:30 77.2 °F 63.2 °F 30.17 in NNW 2 mph 8 mph 62% 0.00 in 159 W/m2
18:40 77 °F 63 °F 30.17 in NNW 3 mph 7 mph 62% 0.00 in 142 W/m2
18:50 76.8 °F 62.8 °F 30.17 in NNW 2 mph 6 mph 62% 0.00 in 126 W/m2
19:00 76.6 °F 62.6 °F 30.17 in WNW 1 mph 5 mph 62% 0.00 in 101 W/m2
19:10 76.5 °F 62.9 °F 30.17 in NNW 2 mph 7 mph 63% 0.00 in 78 W/m2
19:20 75.9 °F 62.4 °F 30.17 in NNW 1 mph 7 mph 63% 0.00 in 56 W/m2
19:30 75.5 °F 62.5 °F 30.17 in West 1 mph 2 mph 64% 0.00 in 36 W/m2
19:40 75 °F 62 °F 30.17 in NW 2 mph 5 mph 64% 0.00 in 23 W/m2
19:50 74.3 °F 62.6 °F 30.17 in WSW 1 mph 2 mph 67% 0.00 in 8 W/m2
20:00 73.8 °F 62.5 °F 30.17 in Calm   2 mph 68% 0.00 in 0 W/m2
20:10 73 °F 62.6 °F 30.17 in SW 1 mph 2 mph 70% 0.00 in 0 W/m2
20:20 71.8 °F 63 °F 30.17 in South 1 mph 3 mph 74% 0.00 in 0 W/m2
20:30 70.9 °F 62.6 °F 30.17 in South 1 mph 3 mph 75% 0.00 in 0 W/m2
20:40 70.3 °F 62 °F 30.18 in SSW 1 mph 3 mph 75% 0.00 in 0 W/m2
20:50 69.8 °F 62.2 °F 30.18 in SSW 1 mph 2 mph 77% 0.00 in 0 W/m2
21:00 69.1 °F 61.9 °F 30.18 in SSW 1 mph 3 mph 78% 0.00 in 0 W/m2
21:10 68.4 °F 61.2 °F 30.18 in SW 2 mph 3 mph 78% 0.00 in 0 W/m2
21:20 67.6 °F 60.8 °F 30.18 in WSW 2 mph 3 mph 79% 0.00 in 0 W/m2
21:30 67 °F 60.3 °F 30.18 in West 2 mph 3 mph 79% 0.00 in 0 W/m2
21:40 66.5 °F 60.1 °F 30.18 in SW 1 mph 3 mph 80% 0.00 in 0 W/m2
21:50 66 °F 59.6 °F 30.19 in WSW 1 mph 2 mph 80% 0.00 in 0 W/m2
22:00 65.6 °F 59.6 °F 30.19 in SW 1 mph 3 mph 81% 0.00 in 0 W/m2
22:10 65.1 °F 59.1 °F 30.19 in WSW 2 mph 3 mph 81% 0.00 in 0 W/m2
22:20 64.6 °F 59.3 °F 30.19 in West 1 mph 3 mph 83% 0.00 in 0 W/m2
22:30 64.2 °F 58.9 °F 30.19 in WSW 1 mph 2 mph 83% 0.00 in 0 W/m2
22:40 64 °F 59.1 °F 30.19 in Calm   2 mph 84% 0.00 in 0 W/m2
22:50 63.7 °F 58.8 °F 30.19 in Calm   2 mph 84% 0.00 in 0 W/m2
23:00 63.5 °F 58.9 °F 30.19 in Calm   2 mph 85% 0.00 in 0 W/m2
23:10 63.5 °F 58.9 °F 30.19 in Calm   2 mph 85% 0.00 in 0 W/m2
23:20 63.3 °F 58.7 °F 30.19 in Calm   2 mph 85% 0.00 in 0 W/m2
23:30 63.1 °F 58.6 °F 30.19 in Calm   2 mph 85% 0.00 in 0 W/m2
23:40 62.9 °F 58.3 °F 30.19 in SE 1 mph 4 mph 85% 0.00 in 0 W/m2
23:50 62.4 °F 58.2 °F 30.19 in SSE 1 mph 3 mph 86% 0.00 in 0 W/m2
Knjazevac, Serbia
Compliments of Weather Underground - 2 mb